Time;durP1;ratioP1;P1;durP2;ratioP2;P2;SDS_P1;SDS_P2;PMS_P1;PMS_P2;Temp;Humidity;BMP_temperature;BMP_pressure;BME280_temperature;BME280_humidity;BME280_pressure;Samples;Min_cycle;Max_cycle;Signal;HPM_P1;HPM_P2
2021/07/14 00:00:21;;;;;;;19.45;14.27;;;21.30;99.90;;;;;;5016429;28;20066;-88
2021/07/14 00:02:47;;;;;;;21.00;15.65;;;21.30;99.90;;;;;;4997155;28;20018;-88
2021/07/14 00:05:16;;;;;;;21.67;15.05;;;21.30;99.90;;;;;;5032028;28;20021;-88
2021/07/14 00:07:42;;;;;;;19.35;15.02;;;21.30;99.90;;;;;;5017765;28;20356;-87
2021/07/14 00:10:21;;;;;;;18.85;14.52;;;21.30;99.90;;;;;;5012760;28;20185;-87
2021/07/14 00:13:32;;;;;;;19.23;14.60;;;21.20;99.90;;;;;;5030794;28;20025;-87
2021/07/14 00:23:37;;;;;;;18.77;14.88;;;21.20;99.90;;;;;;5043362;28;20029;-88
2021/07/14 00:26:03;;;;;;;18.88;14.07;;;21.20;99.90;;;;;;5019750;28;20037;-88
2021/07/14 00:28:29;;;;;;;17.35;14.02;;;21.20;99.90;;;;;;5010165;28;20034;-88
2021/07/14 00:30:59;;;;;;;20.05;14.55;;;21.20;99.90;;;;;;5014912;28;20422;-88
2021/07/14 00:33:26;;;;;;;19.27;14.18;;;21.20;99.90;;;;;;5013542;28;20029;-87
2021/07/14 00:35:55;;;;;;;16.45;13.40;;;21.20;99.90;;;;;;5002144;28;20022;-88
2021/07/14 00:38:21;;;;;;;18.55;14.32;;;21.20;99.90;;;;;;5012809;28;20026;-87
2021/07/14 00:40:47;;;;;;;20.90;14.55;;;21.20;99.90;;;;;;5003587;28;20036;-88
2021/07/14 00:43:13;;;;;;;15.23;12.73;;;21.20;99.90;;;;;;5030978;28;20029;-88
2021/07/14 00:45:39;;;;;;;17.40;13.32;;;21.20;99.90;;;;;;5024982;28;20034;-87
2021/07/14 00:48:06;;;;;;;17.30;13.23;;;21.20;99.90;;;;;;5012609;28;20482;-88
2021/07/14 00:50:33;;;;;;;15.27;13.45;;;21.10;99.90;;;;;;5008724;28;20022;-88
2021/07/14 00:52:59;;;;;;;15.90;12.52;;;21.10;99.90;;;;;;4995662;28;20080;-88
2021/07/14 00:55:25;;;;;;;14.32;12.80;;;21.10;99.90;;;;;;4995687;28;20030;-88
2021/07/14 00:57:50;;;;;;;15.15;12.55;;;21.10;99.90;;;;;;5004536;28;20018;-88
2021/07/14 01:00:16;;;;;;;17.02;12.63;;;21.10;99.90;;;;;;5016827;28;20491;-88
2021/07/14 01:02:42;;;;;;;16.95;13.32;;;21.10;99.90;;;;;;5013890;28;20030;-88
2021/07/14 01:05:31;;;;;;;17.45;13.30;;;21.10;99.90;;;;;;5011526;28;20046;-87
2021/07/14 01:08:02;;;;;;;16.45;12.82;;;21.10;99.90;;;;;;5029582;28;20482;-87
2021/07/14 01:10:40;;;;;;;15.25;12.55;;;21.10;99.90;;;;;;5019914;28;20117;-87
2021/07/14 01:13:31;;;;;;;16.65;12.77;;;21.10;99.90;;;;;;5015447;28;20065;-87
2021/07/14 01:16:03;;;;;;;15.65;12.68;;;21.10;99.90;;;;;;5030829;28;20113;-87
2021/07/14 01:18:32;;;;;;;16.55;12.57;;;21.10;99.90;;;;;;5011015;28;20104;-88
2021/07/14 01:21:03;;;;;;;15.57;12.80;;;21.10;99.90;;;;;;5012366;28;20057;-87
2021/07/14 01:23:52;;;;;;;15.93;12.93;;;21.10;99.90;;;;;;5012303;28;20033;-88
2021/07/14 01:26:36;;;;;;;14.50;11.85;;;21.10;99.90;;;;;;5010992;28;20036;-88
2021/07/14 01:29:08;;;;;;;15.55;12.15;;;21.10;99.90;;;;;;5011547;28;20060;-88
2021/07/14 01:31:36;;;;;;;16.52;13.02;;;21.00;99.90;;;;;;5027658;28;20391;-88
2021/07/14 01:34:03;;;;;;;17.08;13.63;;;21.00;99.90;;;;;;5030592;28;20052;-89
2021/07/14 01:36:31;;;;;;;16.98;12.68;;;21.00;99.90;;;;;;5030726;28;20116;-88
2021/07/14 01:38:58;;;;;;;17.17;12.68;;;21.00;99.90;;;;;;5023439;28;20121;-88
2021/07/14 01:41:27;;;;;;;18.15;13.75;;;21.00;99.90;;;;;;5004658;28;20480;-88
2021/07/14 01:43:57;;;;;;;16.25;13.10;;;21.00;99.90;;;;;;4997293;28;20049;-88
2021/07/14 01:46:26;;;;;;;17.08;12.57;;;21.00;99.90;;;;;;5023588;28;20052;-89
2021/07/14 01:48:55;;;;;;;16.40;12.82;;;21.00;99.90;;;;;;5016659;28;20139;-89
2021/07/14 01:51:23;;;;;;;17.95;12.85;;;21.00;99.90;;;;;;5029912;28;20505;-88
2021/07/14 01:53:49;;;;;;;17.67;13.55;;;21.00;99.90;;;;;;5030135;28;20115;-88
2021/07/14 01:56:15;;;;;;;17.40;13.52;;;21.00;99.90;;;;;;5013403;28;20025;-88
2021/07/14 01:58:43;;;;;;;17.42;14.15;;;21.00;99.90;;;;;;5012246;28;20080;-88
2021/07/14 02:01:12;;;;;;;19.80;14.30;;;21.00;99.90;;;;;;5031411;28;20053;-88
2021/07/14 02:03:43;;;;;;;18.67;13.85;;;21.00;99.90;;;;;;5035769;28;20471;-89
2021/07/14 02:06:11;;;;;;;17.10;13.48;;;21.00;99.90;;;;;;5021454;28;20021;-88
2021/07/14 02:08:38;;;;;;;18.05;13.43;;;21.00;99.90;;;;;;5013759;28;20391;-88
2021/07/14 02:11:05;;;;;;;18.40;13.40;;;21.00;99.90;;;;;;5017192;28;20041;-88
2021/07/14 02:13:32;;;;;;;17.52;13.50;;;21.00;99.90;;;;;;5014093;28;20038;-88
2021/07/14 02:16:00;;;;;;;18.73;14.30;;;20.90;99.90;;;;;;5032913;28;20022;-88
2021/07/14 02:18:33;;;;;;;16.20;12.73;;;20.90;99.90;;;;;;5025127;28;20088;-88
2021/07/14 02:20:59;;;;;;;16.80;12.38;;;21.00;99.90;;;;;;5016916;28;20028;-88
2021/07/14 02:23:25;;;;;;;15.40;12.85;;;21.00;99.90;;;;;;5008381;28;20026;-88
2021/07/14 02:25:50;;;;;;;14.88;11.80;;;20.90;99.90;;;;;;4995307;28;20025;-88
2021/07/14 02:28:16;;;;;;;15.43;12.30;;;20.90;99.90;;;;;;5004010;28;20415;-88
2021/07/14 02:30:42;;;;;;;15.45;12.23;;;20.90;99.90;;;;;;5007960;28;20033;-88
2021/07/14 02:33:10;;;;;;;16.15;12.80;;;20.90;99.90;;;;;;4997377;28;20438;-88
2021/07/14 02:35:39;;;;;;;17.20;13.00;;;20.90;99.90;;;;;;5013555;28;20022;-88
2021/07/14 02:38:11;;;;;;;17.30;12.27;;;20.90;99.90;;;;;;5027280;28;20022;-88
2021/07/14 02:40:49;;;;;;;17.67;13.25;;;20.90;99.90;;;;;;5014119;28;20018;-88
2021/07/14 02:43:16;;;;;;;15.65;13.50;;;20.90;99.90;;;;;;5028625;28;20076;-89
2021/07/14 02:45:46;;;;;;;16.38;12.63;;;20.90;99.90;;;;;;5023607;28;20018;-88
2021/07/14 02:48:13;;;;;;;16.50;12.23;;;20.90;99.90;;;;;;5019409;28;20472;-89
2021/07/14 02:50:39;;;;;;;16.83;12.80;;;20.90;99.90;;;;;;4997084;28;20026;-88
2021/07/14 02:53:15;;;;;;;16.83;13.32;;;20.90;99.90;;;;;;5014561;28;20021;-88
2021/07/14 02:55:46;;;;;;;20.23;13.68;;;20.90;99.90;;;;;;5033814;28;20017;-88
2021/07/14 02:58:13;;;;;;;20.15;13.98;;;20.90;99.90;;;;;;5033375;28;20187;-88
2021/07/14 03:00:40;;;;;;;18.60;13.75;;;20.90;99.90;;;;;;5013534;28;20050;-88
2021/07/14 03:03:08;;;;;;;19.90;14.85;;;20.90;99.90;;;;;;5033406;28;20021;-87
2021/07/14 03:05:35;;;;;;;18.13;13.50;;;20.90;99.90;;;;;;5033490;28;20017;-88
2021/07/14 03:08:05;;;;;;;18.17;13.88;;;20.90;99.90;;;;;;4998095;28;20125;-88
2021/07/14 03:10:31;;;;;;;19.00;13.23;;;20.90;99.90;;;;;;5041580;28;20048;-88
2021/07/14 03:13:02;;;;;;;18.90;13.75;;;20.90;99.90;;;;;;5017379;28;20268;-88
2021/07/14 03:15:30;;;;;;;18.85;12.82;;;20.90;99.90;;;;;;5004126;28;20030;-88
2021/07/14 03:17:57;;;;;;;16.98;13.30;;;20.90;99.90;;;;;;5057372;28;20017;-88
2021/07/14 03:20:24;;;;;;;18.52;13.70;;;20.90;99.90;;;;;;5033663;28;20044;-88
2021/07/14 03:22:51;;;;;;;19.25;13.95;;;20.80;99.90;;;;;;5032596;28;20036;-88
2021/07/14 03:25:19;;;;;;;20.60;14.15;;;20.90;99.90;;;;;;5003317;28;20037;-88
2021/07/14 03:27:50;;;;;;;23.77;15.73;;;20.80;99.90;;;;;;4998938;28;20410;-88
2021/07/14 03:30:17;;;;;;;20.00;14.40;;;20.80;99.90;;;;;;5032532;28;20076;-88
2021/07/14 03:32:43;;;;;;;21.33;14.10;;;20.90;99.90;;;;;;5018713;28;20056;-88
2021/07/14 03:35:09;;;;;;;20.92;14.60;;;20.80;99.90;;;;;;5003571;28;20061;-88
2021/07/14 03:37:36;;;;;;;20.42;14.35;;;20.80;99.90;;;;;;5034634;28;20056;-88
2021/07/14 03:40:22;;;;;;;20.67;15.05;;;20.80;99.90;;;;;;5033741;28;20064;-88
2021/07/14 03:42:51;;;;;;;20.38;14.32;;;20.80;99.90;;;;;;5008472;28;20049;-88
2021/07/14 03:45:17;;;;;;;18.73;14.00;;;20.80;99.90;;;;;;5026360;28;20463;-87
2021/07/14 03:47:43;;;;;;;20.15;14.48;;;20.80;99.90;;;;;;5015968;28;20030;-88
2021/07/14 03:50:10;;;;;;;20.83;14.75;;;20.80;99.90;;;;;;5032747;28;20017;-87
2021/07/14 03:52:37;;;;;;;20.77;15.48;;;20.80;99.90;;;;;;4996837;28;20420;-88
2021/07/14 03:55:08;;;;;;;19.52;14.30;;;20.80;99.90;;;;;;5022515;28;20018;-88
2021/07/14 03:57:34;;;;;;;19.98;14.32;;;20.80;99.90;;;;;;5031892;28;20053;-88
2021/07/14 04:00:00;;;;;;;19.00;14.75;;;20.70;99.90;;;;;;4997862;28;20432;-88
2021/07/14 04:02:26;;;;;;;19.73;15.40;;;20.70;99.90;;;;;;5002653;28;20470;-88
2021/07/14 04:04:52;;;;;;;23.17;15.50;;;20.80;99.90;;;;;;5032889;28;20061;-88
2021/07/14 04:07:27;;;;;;;21.75;15.07;;;20.80;99.90;;;;;;5002044;28;20029;-88
2021/07/14 04:09:53;;;;;;;20.35;14.63;;;20.70;99.90;;;;;;5004482;28;20080;-88
2021/07/14 04:12:19;;;;;;;20.17;14.38;;;20.70;99.90;;;;;;5013741;28;20411;-88
2021/07/14 04:14:45;;;;;;;19.25;13.80;;;20.70;99.90;;;;;;4996781;28;20030;-88
2021/07/14 04:17:11;;;;;;;19.85;14.82;;;20.70;99.90;;;;;;4999148;28;20476;-88
2021/07/14 04:19:40;;;;;;;19.27;14.10;;;20.70;99.90;;;;;;5007083;28;20054;-88
2021/07/14 04:22:07;;;;;;;15.90;12.68;;;20.70;99.90;;;;;;5010317;28;20088;-88
2021/07/14 04:24:33;;;;;;;17.50;13.30;;;20.70;99.90;;;;;;5015029;28;20022;-88
2021/07/14 04:26:59;;;;;;;16.92;12.98;;;20.70;99.90;;;;;;5032756;28;20025;-88
2021/07/14 04:29:25;;;;;;;16.85;12.90;;;20.70;99.90;;;;;;5013429;28;20021;-88
2021/07/14 04:31:51;;;;;;;17.85;12.73;;;20.70;99.90;;;;;;5011779;28;20026;-88
2021/07/14 04:34:17;;;;;;;16.92;13.07;;;20.70;99.90;;;;;;5012237;28;20026;-89
2021/07/14 04:36:42;;;;;;;15.73;11.57;;;20.70;99.90;;;;;;4988251;28;20038;-88
2021/07/14 04:39:09;;;;;;;15.77;11.55;;;20.60;99.90;;;;;;5001375;28;20029;-88
2021/07/14 04:41:35;;;;;;;16.92;11.88;;;20.70;99.90;;;;;;5012714;28;20022;-88
2021/07/14 04:44:03;;;;;;;16.38;11.70;;;20.60;99.90;;;;;;5019239;28;20022;-88
2021/07/14 04:46:32;;;;;;;13.73;10.80;;;20.60;99.90;;;;;;5017200;28;20037;-88
2021/07/14 04:48:58;;;;;;;14.63;11.15;;;20.60;99.90;;;;;;5023367;28;20390;-88
2021/07/14 04:51:25;;;;;;;15.02;11.52;;;20.60;99.90;;;;;;5000213;28;20026;-88
2021/07/14 04:53:51;;;;;;;18.05;12.25;;;20.60;99.90;;;;;;5019392;28;20053;-88
2021/07/14 04:56:17;;;;;;;18.05;11.63;;;20.60;99.90;;;;;;5032373;28;20474;-87
2021/07/14 04:58:47;;;;;;;15.40;10.70;;;20.60;99.90;;;;;;5043136;22;20502;-86
2021/07/14 05:01:17;;;;;;;15.53;11.10;;;20.60;99.90;;;;;;5015845;28;20087;-86
2021/07/14 05:03:48;;;;;;;14.88;10.48;;;20.60;99.90;;;;;;5032342;28;20070;-86
2021/07/14 05:06:18;;;;;;;14.20;10.68;;;20.60;99.90;;;;;;5022129;28;20084;-87
2021/07/14 05:08:52;;;;;;;13.05;10.50;;;20.60;99.90;;;;;;5027863;28;20147;-86
2021/07/14 05:11:17;;;;;;;12.43;9.80;;;20.60;99.90;;;;;;5030486;28;20394;-87
2021/07/14 05:13:43;;;;;;;12.98;9.70;;;20.60;99.90;;;;;;5030215;28;20036;-86
2021/07/14 05:16:09;;;;;;;13.57;9.88;;;20.60;99.90;;;;;;5029961;28;20380;-86
2021/07/14 05:18:36;;;;;;;12.52;9.30;;;20.60;99.90;;;;;;5030694;28;20508;-87
2021/07/14 05:21:03;;;;;;;12.13;8.98;;;20.60;99.90;;;;;;5030977;28;20060;-87
2021/07/14 05:23:31;;;;;;;12.15;9.43;;;20.60;99.90;;;;;;5031226;28;20111;-87
2021/07/14 05:25:57;;;;;;;12.75;9.70;;;20.60;99.90;;;;;;5026550;28;20480;-86
2021/07/14 05:28:23;;;;;;;13.05;9.25;;;20.60;99.90;;;;;;5021185;28;20022;-86
2021/07/14 05:30:51;;;;;;;13.85;9.65;;;20.60;99.90;;;;;;5030802;28;20119;-86
2021/07/14 05:33:17;;;;;;;12.63;9.40;;;20.60;99.90;;;;;;5030677;28;20025;-87
2021/07/14 05:35:45;;;;;;;13.95;10.48;;;20.60;99.90;;;;;;5031721;28;20017;-86
2021/07/14 05:38:18;;;;;;;15.57;10.50;;;20.60;99.90;;;;;;5033350;28;20017;-87
2021/07/14 05:40:54;;;;;;;12.55;10.00;;;20.60;99.90;;;;;;5038188;28;20549;-87
2021/07/14 05:43:19;;;;;;;13.27;10.15;;;20.60;99.90;;;;;;5035717;28;20065;-86
2021/07/14 05:45:46;;;;;;;12.50;10.32;;;20.60;99.90;;;;;;5034824;28;20049;-87
2021/07/14 05:48:11;;;;;;;11.25;9.13;;;20.60;99.90;;;;;;5034413;28;20029;-87
2021/07/14 05:50:38;;;;;;;13.05;9.85;;;20.60;99.90;;;;;;5036110;28;20033;-87
2021/07/14 05:53:04;;;;;;;14.18;10.38;;;20.60;99.90;;;;;;5051052;28;20052;-86
2021/07/14 05:55:30;;;;;;;13.18;10.50;;;20.60;99.90;;;;;;5037501;28;20025;-86
2021/07/14 05:57:56;;;;;;;12.27;9.93;;;20.60;99.90;;;;;;5016968;28;20525;-85
2021/07/14 06:00:22;;;;;;;13.00;10.40;;;20.60;99.90;;;;;;5021323;28;20131;-85
2021/07/14 06:02:50;;;;;;;12.52;10.23;;;20.60;99.90;;;;;;5046652;28;20035;-85
2021/07/14 06:05:15;;;;;;;13.57;10.15;;;20.60;99.90;;;;;;5030621;28;20034;-84
2021/07/14 06:07:41;;;;;;;13.65;10.88;;;20.60;99.90;;;;;;5037432;28;20025;-86
2021/07/14 06:10:12;;;;;;;12.27;10.43;;;20.60;99.90;;;;;;5004684;28;20437;-86
2021/07/14 06:12:38;;;;;;;15.25;10.85;;;20.60;99.90;;;;;;5010934;28;20021;-85
2021/07/14 06:15:06;;;;;;;14.68;11.48;;;20.60;99.90;;;;;;5033474;28;20056;-86
2021/07/14 06:17:33;;;;;;;14.27;11.00;;;20.60;99.90;;;;;;5029286;28;20061;-88
2021/07/14 06:20:03;;;;;;;13.73;11.25;;;20.60;99.90;;;;;;5036405;28;20026;-85
2021/07/14 06:22:29;;;;;;;14.60;12.35;;;20.60;99.90;;;;;;5036436;28;20022;-85
2021/07/14 06:24:55;;;;;;;14.20;12.48;;;20.60;99.90;;;;;;5019838;28;20034;-86
2021/07/14 06:27:26;;;;;;;15.77;12.00;;;20.60;99.90;;;;;;5033510;28;20033;-86
2021/07/14 06:29:55;;;;;;;16.73;12.77;;;20.60;99.90;;;;;;5030732;28;20031;-86
2021/07/14 06:32:21;;;;;;;14.10;11.63;;;20.60;99.90;;;;;;5044373;28;20080;-86
2021/07/14 06:34:50;;;;;;;13.80;11.95;;;20.60;99.90;;;;;;5033569;28;20528;-85
2021/07/14 06:37:16;;;;;;;15.80;11.93;;;20.60;99.90;;;;;;5034463;28;20048;-86
2021/07/14 06:39:41;;;;;;;13.50;11.45;;;20.60;99.90;;;;;;5029032;28;20029;-88
2021/07/14 06:42:09;;;;;;;14.63;11.40;;;20.70;99.90;;;;;;5032675;28;20493;-86
2021/07/14 06:44:37;;;;;;;14.48;11.65;;;20.60;99.90;;;;;;5033819;28;20048;-86
2021/07/14 06:47:04;;;;;;;15.52;11.25;;;20.60;99.90;;;;;;5016513;28;20049;-86
2021/07/14 06:49:30;;;;;;;14.15;11.80;;;20.60;99.90;;;;;;5030243;28;20120;-86
2021/07/14 06:52:23;;;;;;;15.50;12.35;;;20.70;99.90;;;;;;5014655;28;20104;-89
2021/07/14 06:55:09;;;;;;;17.40;13.25;;;20.70;99.90;;;;;;5043565;28;20025;-88
2021/07/14 06:57:39;;;;;;;14.57;12.02;;;20.70;99.90;;;;;;5001347;28;20037;-91
2021/07/14 07:00:30;;;;;;;17.08;13.00;;;20.70;99.90;;;;;;5026246;28;20057;-89
2021/07/14 07:02:57;;;;;;;17.02;12.45;;;20.70;99.90;;;;;;5031978;28;20029;-88
2021/07/14 07:05:25;;;;;;;13.18;11.27;;;20.70;99.90;;;;;;5031730;28;20385;-87
2021/07/14 07:08:16;;;;;;;13.02;11.10;;;20.70;99.90;;;;;;5032724;28;20029;-86
2021/07/14 07:10:46;;;;;;;15.55;12.00;;;20.70;99.90;;;;;;5007864;28;20060;-88
2021/07/14 07:13:45;;;;;;;;;;;;;;;;;;;;;
2021/07/14 07:16:23;;;;;;;;;;;;;;;;;;;;;
2021/07/14 07:19:09;;;;;;;;;;;;;;;;;;;;;
2021/07/14 07:21:55;;;;;;;;;;;;;;;;;;;;;
2021/07/14 07:24:26;;;;;;;15.45;12.02;;;20.70;99.90;;;;;;5034676;28;20028;-87
2021/07/14 07:26:57;;;;;;;;;;;20.70;99.90;;;;;;5034087;28;20040;-90
2021/07/14 07:29:25;;;;;;;;;;;20.70;99.90;;;;;;5032933;28;19974;-86
2021/07/14 07:31:51;;;;;;;13.82;11.13;;;20.70;99.90;;;;;;5033659;28;20302;-86
2021/07/14 07:34:27;;;;;;;13.38;10.52;;;20.70;99.90;;;;;;5032068;28;20474;-87
2021/07/14 07:37:00;;;;;;;13.95;11.25;;;20.70;99.90;;;;;;5017273;28;20448;-87
2021/07/14 07:39:27;;;;;;;13.68;11.32;;;20.70;99.90;;;;;;5012485;28;20125;-88
2021/07/14 07:41:53;;;;;;;14.13;11.15;;;20.70;99.90;;;;;;5032492;28;20033;-87
2021/07/14 07:44:21;;;;;;;15.52;11.77;;;20.70;99.90;;;;;;5033372;28;20028;-88
2021/07/14 07:46:47;;;;;;;12.68;11.25;;;20.70;99.90;;;;;;5032375;28;20470;-87
2021/07/14 07:49:12;;;;;;;16.13;11.85;;;20.70;99.90;;;;;;5031632;28;20036;-88
2021/07/14 07:51:41;;;;;;;14.90;12.52;;;20.70;99.90;;;;;;5024335;28;20025;-86
2021/07/14 07:54:07;;;;;;;15.82;12.13;;;20.70;99.90;;;;;;5038695;28;20025;-86
2021/07/14 07:56:33;;;;;;;17.02;12.90;;;20.70;99.90;;;;;;5037524;28;20048;-86
2021/07/14 07:59:03;;;;;;;17.10;12.88;;;20.70;99.90;;;;;;5032173;28;20040;-85
2021/07/14 08:01:34;;;;;;;16.37;12.37;;;20.70;99.90;;;;;;5034532;28;20022;-87
2021/07/14 08:03:59;;;;;;;;;;;20.70;99.90;;;;;;5041271;28;20033;-86
2021/07/14 08:06:25;;;;;;;18.67;13.68;;;20.70;99.90;;;;;;5040663;28;19977;-86
2021/07/14 08:09:02;;;;;;;20.10;14.43;;;20.70;99.90;;;;;;5036248;28;20031;-85
2021/07/14 08:11:28;;;;;;;18.02;13.80;;;20.70;99.90;;;;;;5036301;28;20024;-86
2021/07/14 08:13:59;;;;;;;18.45;14.00;;;20.70;99.90;;;;;;5032542;28;20018;-86
2021/07/14 08:16:26;;;;;;;19.70;14.40;;;20.70;99.90;;;;;;5043825;28;20039;-87
2021/07/14 08:18:52;;;;;;;21.77;14.85;;;20.70;99.90;;;;;;5040558;28;20053;-87
2021/07/14 08:21:18;;;;;;;19.35;14.20;;;20.70;99.90;;;;;;5034368;28;20116;-86
2021/07/14 08:23:49;;;;;;;18.48;14.25;;;20.70;99.90;;;;;;5037079;28;20055;-88
2021/07/14 08:26:15;;;;;;;20.38;14.80;;;20.70;99.90;;;;;;5048036;28;20036;-87
2021/07/14 08:28:53;;;;;;;17.88;13.15;;;20.70;99.90;;;;;;5024121;28;20133;-89
2021/07/14 08:31:24;;;;;;;21.27;15.43;;;20.70;99.90;;;;;;5031777;28;20021;-88
2021/07/14 08:33:51;;;;;;;19.23;14.13;;;20.80;99.90;;;;;;5038636;28;20041;-88
2021/07/14 08:36:19;;;;;;;16.75;13.32;;;20.80;99.90;;;;;;5040455;28;20029;-87
2021/07/14 08:38:51;;;;;;;17.98;13.48;;;20.80;99.90;;;;;;5022031;28;20053;-86
2021/07/14 08:41:20;;;;;;;16.77;12.35;;;20.80;99.90;;;;;;5040587;28;20469;-86
2021/07/14 08:43:59;;;;;;;;;;;;;;;;;;;;;
2021/07/14 08:46:29;;;;;;;18.60;12.95;;;20.80;99.90;;;;;;5040479;28;20576;-87
2021/07/14 08:48:56;;;;;;;14.47;12.47;;;20.80;99.90;;;;;;5040292;28;20025;-88
2021/07/14 08:51:23;;;;;;;15.55;12.10;;;20.80;99.90;;;;;;5036253;28;20269;-88
2021/07/14 08:53:52;;;;;;;15.90;12.63;;;20.80;99.90;;;;;;5022930;28;20057;-88
2021/07/14 08:56:24;;;;;;;17.60;13.43;;;20.80;99.90;;;;;;5036790;28;20056;-87
2021/07/14 08:58:49;;;;;;;16.65;12.75;;;20.80;99.90;;;;;;5037139;28;20037;-87
2021/07/14 09:01:15;;;;;;;13.93;12.15;;;20.80;99.90;;;;;;5037760;28;20057;-87
2021/07/14 09:03:41;;;;;;;16.70;12.35;;;20.90;99.90;;;;;;5043451;28;20017;-87
2021/07/14 09:06:09;;;;;;;16.77;13.90;;;20.80;99.90;;;;;;5032434;28;20093;-88
2021/07/14 09:08:35;;;;;;;18.65;13.27;;;20.80;99.90;;;;;;5058468;28;20013;-91
2021/07/14 09:11:07;;;;;;;16.05;12.45;;;20.80;99.90;;;;;;5044418;28;20043;-86
2021/07/14 09:13:45;;;;;;;16.75;12.00;;;20.80;99.90;;;;;;5061268;28;20022;-88
2021/07/14 09:16:16;;;;;;;16.67;13.35;;;20.80;99.90;;;;;;5066256;28;20019;-89
2021/07/14 09:18:47;;;;;;;17.17;13.15;;;20.90;99.90;;;;;;5061502;28;20041;-90
2021/07/14 09:21:23;;;;;;;;;;;20.90;99.90;;;;;;5063548;28;20092;-88
2021/07/14 09:23:48;;;;;;;15.68;12.48;;;20.90;99.90;;;;;;5039648;28;19893;-91
2021/07/14 09:26:15;;;;;;;15.95;12.68;;;20.90;99.90;;;;;;5048243;28;20033;-87
2021/07/14 09:28:41;;;;;;;16.83;13.98;;;20.90;99.90;;;;;;5053667;28;20039;-88
2021/07/14 09:31:12;;;;;;;18.27;14.10;;;20.90;99.90;;;;;;5047928;28;20049;-88
2021/07/14 09:33:43;;;;;;;17.85;13.60;;;20.90;99.90;;;;;;5048343;28;20037;-88
2021/07/14 09:36:14;;;;;;;19.17;14.82;;;20.90;99.90;;;;;;5028868;28;20478;-88
2021/07/14 09:38:42;;;;;;;17.65;14.55;;;20.90;99.90;;;;;;5039742;28;20033;-87
2021/07/14 09:41:11;;;;;;;17.92;14.25;;;20.90;99.90;;;;;;5046550;28;20030;-89
2021/07/14 09:43:40;;;;;;;19.52;14.93;;;20.90;99.90;;;;;;5047516;28;20025;-88
2021/07/14 09:46:16;;;;;;;18.80;15.57;;;20.90;99.90;;;;;;5057950;28;20026;-88
2021/07/14 09:48:58;;;;;;;18.67;14.10;;;20.90;99.90;;;;;;5062617;28;20034;-88
2021/07/14 09:51:24;;;;;;;19.13;15.30;;;20.90;99.90;;;;;;5035394;28;20033;-90
2021/07/14 09:54:01;;;;;;;19.70;15.27;;;20.90;99.90;;;;;;5057254;28;20089;-88
2021/07/14 09:56:35;;;;;;;20.05;14.23;;;20.90;99.90;;;;;;5018534;28;20101;-86
2021/07/14 09:59:05;;;;;;;18.65;14.25;;;20.90;99.90;;;;;;5043745;28;20025;-87
2021/07/14 10:01:36;;;;;;;18.75;14.43;;;20.90;99.90;;;;;;5068871;28;20045;-91
2021/07/14 10:04:46;;;;;;;21.08;16.05;;;20.90;99.90;;;;;;5061353;28;20018;-90
2021/07/14 10:07:24;;;;;;;18.13;14.93;;;20.90;99.90;;;;;;5058160;28;20060;-89
2021/07/14 10:09:55;;;;;;;17.63;13.90;;;20.90;99.90;;;;;;5057815;28;20048;-88
2021/07/14 10:12:40;;;;;;;18.20;14.50;;;21.00;99.90;;;;;;5054505;28;20017;-89
2021/07/14 10:15:15;;;;;;;17.58;14.38;;;21.00;99.90;;;;;;5038084;28;20026;-87
2021/07/14 10:17:53;;;;;;;17.40;14.80;;;21.00;99.90;;;;;;5039455;28;20080;-87
2021/07/14 10:20:22;;;;;;;20.83;15.05;;;21.00;99.90;;;;;;5035449;28;20044;-87
2021/07/14 10:22:52;;;;;;;22.88;16.98;;;21.00;99.90;;;;;;5036861;28;20119;-87
2021/07/14 10:25:21;;;;;;;22.73;16.60;;;21.00;99.90;;;;;;5034368;28;20068;-86
2021/07/14 10:27:49;;;;;;;23.08;16.92;;;21.00;99.90;;;;;;5031762;28;20021;-87
2021/07/14 10:30:28;;;;;;;22.40;16.52;;;21.00;99.90;;;;;;5042328;28;20021;-88
2021/07/14 10:32:55;;;;;;;25.95;18.33;;;21.00;99.90;;;;;;5031913;28;20061;-87
2021/07/14 10:35:35;;;;;;;;;;;;;;;;;;;;;
2021/07/14 10:38:07;;;;;;;21.42;16.77;;;21.00;99.90;;;;;;5038253;28;20469;-87
2021/07/14 10:40:45;;;;;;;23.50;17.65;;;21.00;99.90;;;;;;5036531;28;20036;-87
2021/07/14 10:43:16;;;;;;;23.95;17.13;;;21.00;99.90;;;;;;5023278;28;20056;-86
2021/07/14 10:45:52;;;;;;;22.25;15.82;;;21.00;99.90;;;;;;5039390;28;20027;-88
2021/07/14 10:48:21;;;;;;;21.00;15.80;;;21.00;99.90;;;;;;5038848;28;20017;-87
2021/07/14 10:50:50;;;;;;;26.15;18.45;;;21.00;99.90;;;;;;5041603;28;20143;-87
2021/07/14 10:53:19;;;;;;;23.45;17.92;;;21.00;99.90;;;;;;5040306;28;20042;-88
2021/07/14 10:55:50;;;;;;;27.42;19.35;;;21.00;99.90;;;;;;5037554;28;20014;-88
2021/07/14 10:58:21;;;;;;;24.52;19.23;;;21.00;99.90;;;;;;5020838;28;20022;-88
2021/07/14 11:01:15;;;;;;;24.73;17.45;;;21.00;99.90;;;;;;5042184;28;20056;-87
2021/07/14 11:03:46;;;;;;;25.02;17.67;;;21.00;99.90;;;;;;5049219;28;20516;-87
2021/07/14 11:06:15;;;;;;;;;;;21.00;99.90;;;;;;5048936;28;20476;-87
2021/07/14 11:08:50;;;;;;;22.55;15.38;;;21.00;99.90;;;;;;5034047;28;19905;-87
2021/07/14 11:11:37;;;;;;;22.00;16.40;;;21.00;99.90;;;;;;5033040;28;20377;-87
2021/07/14 11:14:19;;;;;;;25.90;17.40;;;21.00;99.90;;;;;;5035902;28;20040;-87
2021/07/14 11:17:09;;;;;;;;;;;;;;;;;;;;;
2021/07/14 11:19:50;;;;;;;28.20;18.42;;;21.00;99.90;;;;;;5032186;28;20035;-86
2021/07/14 11:22:48;;;;;;;22.10;16.33;;;20.90;99.90;;;;;;5020405;28;20025;-88
2021/07/14 11:25:27;;;;;;;24.60;16.73;;;20.90;99.90;;;;;;5026241;28;20059;-86
2021/07/14 11:27:55;;;;;;;22.63;15.75;;;21.00;99.90;;;;;;5034985;28;20083;-87
2021/07/14 11:30:25;;;;;;;19.83;15.38;;;21.00;99.90;;;;;;5030885;28;20033;-86
2021/07/14 11:33:06;;;;;;;22.20;16.00;;;21.00;99.90;;;;;;5031760;28;20036;-87
2021/07/14 11:35:40;;;;;;;25.27;16.90;;;21.00;99.90;;;;;;5032546;28;20021;-87
2021/07/14 11:38:17;;;;;;;22.92;16.02;;;21.00;99.90;;;;;;5020209;28;20029;-86
2021/07/14 11:41:05;;;;;;;19.80;14.95;;;21.00;99.90;;;;;;5032304;28;20034;-86
2021/07/14 11:43:52;;;;;;;;;;;;;;;;;;;;;
2021/07/14 11:46:24;;;;;;;22.85;14.88;;;21.00;99.90;;;;;;5049084;28;20021;-86
2021/07/14 11:49:08;;;;;;;21.50;15.85;;;21.00;99.90;;;;;;5032377;28;20477;-87
2021/07/14 11:51:41;;;;;;;21.48;14.15;;;21.00;99.90;;;;;;5034715;28;20474;-86
2021/07/14 11:54:24;;;;;;;23.50;14.88;;;21.10;99.90;;;;;;5001187;28;20022;-87
2021/07/14 11:56:51;;;;;;;22.70;15.57;;;21.10;99.90;;;;;;5027760;28;20121;-86
2021/07/14 11:59:21;;;;;;;23.83;15.80;;;21.10;99.90;;;;;;5050731;28;20441;-84
2021/07/14 12:01:55;;;;;;;18.92;14.50;;;21.10;99.90;;;;;;5059575;28;20077;-84
2021/07/14 12:04:27;;;;;;;23.48;15.75;;;21.10;99.90;;;;;;5049820;28;20040;-86
2021/07/14 12:07:38;;;;;;;21.58;14.73;;;21.10;99.90;;;;;;5046330;28;20393;-88
2021/07/14 12:10:29;;;;;;;;;;;21.10;99.90;;;;;;4986871;28;20137;-87
2021/07/14 12:13:01;;;;;;;20.70;14.57;;;21.10;99.90;;;;;;4974378;28;19917;-88
2021/07/14 12:15:29;;;;;;;20.90;14.73;;;21.10;99.90;;;;;;5027220;28;20021;-88
2021/07/14 12:18:15;;;;;;;19.00;14.35;;;21.10;99.90;;;;;;5032347;28;20381;-88
2021/07/14 12:20:52;;;;;;;18.52;13.73;;;21.10;99.90;;;;;;5027155;28;20038;-87
2021/07/14 12:23:23;;;;;;;20.40;14.10;;;21.20;99.90;;;;;;5030927;28;20382;-88
2021/07/14 12:26:00;;;;;;;19.23;14.07;;;21.20;99.90;;;;;;5031072;28;20028;-87
2021/07/14 12:28:29;;;;;;;19.85;13.70;;;21.20;99.90;;;;;;5017670;28;20033;-88
2021/07/14 12:30:57;;;;;;;20.33;14.45;;;21.20;99.90;;;;;;5015910;28;20103;-86
2021/07/14 12:33:23;;;;;;;20.50;14.32;;;21.20;99.90;;;;;;5048262;28;20020;-87
2021/07/14 12:35:52;;;;;;;20.85;15.50;;;21.20;99.90;;;;;;5025693;28;20363;-87
2021/07/14 12:38:19;;;;;;;16.60;13.20;;;21.20;99.90;;;;;;5034122;28;20041;-88
2021/07/14 12:40:51;;;;;;;15.68;12.70;;;21.20;99.90;;;;;;5029779;28;20573;-87
2021/07/14 12:43:24;;;;;;;18.23;13.48;;;21.20;99.90;;;;;;5027127;28;20043;-87
2021/07/14 12:45:55;;;;;;;17.92;13.23;;;21.20;99.90;;;;;;5018494;28;20021;-87
2021/07/14 12:48:23;;;;;;;17.77;13.73;;;21.30;99.90;;;;;;5030475;28;20021;-88
2021/07/14 12:51:04;;;;;;;16.20;13.52;;;21.30;99.90;;;;;;5030587;28;20029;-88
2021/07/14 12:53:32;;;;;;;18.73;13.45;;;21.30;99.90;;;;;;5018186;28;20029;-87
2021/07/14 12:55:59;;;;;;;17.20;13.65;;;21.30;99.90;;;;;;5025722;28;20096;-87
2021/07/14 12:58:51;;;;;;;17.17;13.70;;;21.30;99.90;;;;;;5022268;28;20041;-89
2021/07/14 13:01:17;;;;;;;18.42;12.57;;;21.30;99.90;;;;;;5000613;28;20115;-87
2021/07/14 13:03:48;;;;;;;17.10;12.68;;;21.40;99.90;;;;;;5004401;28;20029;-87